createdAt,value
2024-04-18T00:01:00.212Z,7.60
2024-04-18T00:04:02.616Z,7.32
2024-04-18T00:07:07.486Z,7.43
2024-04-18T00:10:09.431Z,7.47
2024-04-18T00:13:11.497Z,7.95
2024-04-18T00:16:13.826Z,7.25
2024-04-18T00:19:15.796Z,7.28
2024-04-18T00:22:20.313Z,8.00
2024-04-18T00:25:22.384Z,6.60
2024-04-18T00:28:24.226Z,8.30
2024-04-18T00:31:26.098Z,9.20
2024-04-18T00:34:27.955Z,8.45
2024-04-18T00:37:32.439Z,9.02
2024-04-18T00:40:34.426Z,11.27
2024-04-18T00:43:36.380Z,10.23
2024-04-18T00:46:38.775Z,10.20
2024-04-18T00:49:41.350Z,9.93
2024-04-18T00:52:46.748Z,9.60
2024-04-18T00:55:48.873Z,10.32
2024-04-18T00:58:51.470Z,10.80
2024-04-18T01:01:53.371Z,11.50
2024-04-18T01:04:55.278Z,16.55
2024-04-18T01:07:59.824Z,11.75
2024-04-18T01:11:01.739Z,13.55
2024-04-18T01:14:10.359Z,11.85
2024-04-18T01:17:12.347Z,13.85
2024-04-18T01:20:14.510Z,12.52
2024-04-18T01:23:19.083Z,11.82
2024-04-18T01:26:23.658Z,13.95
2024-04-18T01:29:25.580Z,14.13
2024-04-18T01:32:30.477Z,18.75
2024-04-18T01:35:32.662Z,15.20
2024-04-18T01:38:34.682Z,16.38
2024-04-18T01:41:39.358Z,16.23
2024-04-18T01:44:41.321Z,15.18
2024-04-18T01:47:43.397Z,13.95
2024-04-18T01:50:45.454Z,13.60
2024-04-18T01:53:47.432Z,13.35
2024-04-18T01:56:52.128Z,13.35
2024-04-18T01:59:54.107Z,15.15
2024-04-18T02:02:56.136Z,16.10
2024-04-18T02:05:59.254Z,19.67
2024-04-18T02:09:01.365Z,15.48
2024-04-18T02:12:06.299Z,14.88
2024-04-18T02:15:08.462Z,17.38
2024-04-18T02:18:10.572Z,15.95
2024-04-18T02:21:12.523Z,14.48
2024-04-18T02:24:14.466Z,16.08
2024-04-18T02:27:18.994Z,17.38
2024-04-18T02:30:22.987Z,13.93
2024-04-18T02:33:25.693Z,17.95
2024-04-18T02:36:27.666Z,18.33
2024-04-18T02:39:29.655Z,18.95
2024-04-18T02:42:34.320Z,19.83
2024-04-18T02:45:36.343Z,15.68
2024-04-18T02:48:39.320Z,16.23
2024-04-18T02:51:41.291Z,19.45
2024-04-18T02:54:43.330Z,17.83
2024-04-18T02:57:48.040Z,19.17
2024-04-18T03:00:49.979Z,20.27
2024-04-18T03:03:52.155Z,23.38
2024-04-18T03:06:54.118Z,21.67
2024-04-18T03:09:56.525Z,19.30
2024-04-18T03:13:01.227Z,19.70
2024-04-18T03:16:03.507Z,17.83
2024-04-18T03:19:11.932Z,19.73
2024-04-18T03:22:14.201Z,17.42
2024-04-18T03:25:16.273Z,18.63
2024-04-18T03:28:20.828Z,16.85
2024-04-18T03:31:22.646Z,17.00
2024-04-18T03:34:24.494Z,16.40
2024-04-18T03:37:26.415Z,18.38
2024-04-18T03:40:28.316Z,16.88
2024-04-18T03:43:32.860Z,18.10
2024-04-18T03:46:35.369Z,17.23
2024-04-18T03:49:37.197Z,18.02
2024-04-18T03:52:39.899Z,15.73
2024-04-18T03:55:42.153Z,15.90
2024-04-18T03:58:46.896Z,15.68
2024-04-18T04:01:48.819Z,14.85
2024-04-18T04:04:51.756Z,21.60
2024-04-18T04:07:53.758Z,13.73
2024-04-18T04:10:56.226Z,13.85
2024-04-18T04:14:03.694Z,9.48
2024-04-18T04:17:21.726Z,8.68
2024-04-18T04:20:25.750Z,11.40
2024-04-18T04:23:27.716Z,11.07
2024-04-18T04:26:34.530Z,10.55
2024-04-18T04:29:36.758Z,10.18
2024-04-18T04:32:41.376Z,11.27
2024-04-18T04:35:43.376Z,9.68
2024-04-18T04:38:45.339Z,9.15
2024-04-18T04:41:47.560Z,9.52
2024-04-18T04:44:49.628Z,8.65
2024-04-18T04:47:54.307Z,7.97
2024-04-18T04:50:58.418Z,7.40
2024-04-18T04:54:04.729Z,7.30
2024-04-18T04:57:06.936Z,6.07
2024-04-18T05:00:09.946Z,5.95
2024-04-18T05:03:14.490Z,6.30
2024-04-18T05:06:16.450Z,6.63
2024-04-18T05:09:20.357Z,7.25
2024-04-18T05:12:23.281Z,6.47
2024-04-18T05:15:25.189Z,6.50
2024-04-18T05:18:29.861Z,6.13
2024-04-18T05:21:32.600Z,6.95
2024-04-18T05:24:35.568Z,7.70
2024-04-18T05:27:44.375Z,7.88
2024-04-18T05:31:04.929Z,6.78
2024-04-18T05:34:09.595Z,6.47
2024-04-18T05:37:13.548Z,6.10
2024-04-18T05:40:16.200Z,6.55
2024-04-18T05:43:18.233Z,7.60
2024-04-18T05:46:52.388Z,7.57
2024-04-18T05:49:57.865Z,9.30
2024-04-18T05:52:59.949Z,7.47
2024-04-18T05:56:01.982Z,7.93
2024-04-18T05:59:04.371Z,7.55
2024-04-18T06:02:07.645Z,7.32
2024-04-18T06:05:13.288Z,7.05
2024-04-18T06:08:15.727Z,6.45
2024-04-18T06:11:17.802Z,6.25
2024-04-18T06:14:21.491Z,8.77
2024-04-18T06:20:29.487Z,6.95
2024-04-18T06:23:31.479Z,7.95
2024-04-18T06:26:33.468Z,6.10
2024-04-18T06:29:35.452Z,6.95
2024-04-18T06:32:38.289Z,6.90
2024-04-18T06:35:43.107Z,7.10
2024-04-18T06:38:45.155Z,6.57
2024-04-18T06:41:47.118Z,6.68
2024-04-18T06:44:49.017Z,6.90
2024-04-18T06:47:51.027Z,7.45
2024-04-18T06:50:55.682Z,7.53
2024-04-18T06:53:57.594Z,8.57
2024-04-18T06:56:59.532Z,8.55
2024-04-18T07:00:01.407Z,6.97
2024-04-18T07:03:14.131Z,7.97
2024-04-18T07:06:18.938Z,7.35
2024-04-18T07:09:20.944Z,7.93
2024-04-18T07:12:23.077Z,8.57
2024-04-18T07:15:25.599Z,9.50
2024-04-18T07:18:27.855Z,10.20
2024-04-18T07:21:32.789Z,10.02
2024-04-18T07:24:34.966Z,9.88
2024-04-18T07:27:37.073Z,9.65
2024-04-18T07:30:39.212Z,9.55
2024-04-18T07:33:41.366Z,10.15
2024-04-18T07:36:49.657Z,10.10
2024-04-18T07:39:52.037Z,9.85
2024-04-18T07:42:55.167Z,9.98
2024-04-18T07:46:16.653Z,9.48
2024-04-18T07:49:47.949Z,9.10
2024-04-18T08:00:32.018Z,8.88
2024-04-18T08:04:17.531Z,8.57
2024-04-18T08:07:28.465Z,8.43
2024-04-18T08:19:09.436Z,8.82
2024-04-18T08:22:12.855Z,9.95
2024-04-18T08:25:14.996Z,9.85
2024-04-18T08:28:22.074Z,10.68
2024-04-18T08:31:42.109Z,10.35
2024-04-18T08:34:53.027Z,10.75
2024-04-18T08:37:55.263Z,10.25
2024-04-18T08:41:03.872Z,10.02
2024-04-18T08:44:08.445Z,9.52
2024-04-18T08:47:16.178Z,9.35
2024-04-18T08:50:21.752Z,10.32
2024-04-18T08:53:29.861Z,9.85
2024-04-18T08:56:33.728Z,10.82
2024-04-18T09:03:41.443Z,9.73
2024-04-18T09:06:43.743Z,9.07
2024-04-18T09:09:54.675Z,8.85
2024-04-18T09:13:07.584Z,8.13
2024-04-18T09:16:10.089Z,8.40
2024-04-18T09:19:18.230Z,9.40
2024-04-18T09:22:29.898Z,8.45
2024-04-18T09:26:05.285Z,7.47
2024-04-18T09:29:13.933Z,7.72
2024-04-18T09:32:26.733Z,6.70
2024-04-18T09:37:10.490Z,6.82
2024-04-18T09:40:48.663Z,6.20
2024-04-18T09:47:45.640Z,7.18
2024-04-18T09:51:02.936Z,6.63
2024-04-18T09:54:16.602Z,6.90
2024-04-18T09:57:19.637Z,5.95
2024-04-18T10:00:31.121Z,6.07
2024-04-18T10:03:40.284Z,5.78
2024-04-18T10:06:47.791Z,6.03
2024-04-18T10:09:59.502Z,6.32
2024-04-18T10:13:05.241Z,6.55
2024-04-18T10:16:10.420Z,6.50
2024-04-18T10:19:34.308Z,6.00
2024-04-18T10:29:49.793Z,5.07
2024-04-18T10:32:53.896Z,5.15
2024-04-18T10:35:56.238Z,5.15
2024-04-18T10:39:01.355Z,5.35
2024-04-18T10:42:04.056Z,5.47
2024-04-18T10:45:06.526Z,5.32
2024-04-18T10:48:09.002Z,5.47
2024-04-18T10:51:11.231Z,5.22
2024-04-18T10:54:16.630Z,4.97
2024-04-18T10:57:22.278Z,5.30
2024-04-18T11:00:24.624Z,5.82
2024-04-18T11:03:26.837Z,5.43
2024-04-18T11:06:28.816Z,5.80
2024-04-18T11:09:35.232Z,6.10
2024-04-18T11:12:37.407Z,5.75
2024-04-18T11:15:39.908Z,5.65
2024-04-18T11:18:42.287Z,6.20
2024-04-18T11:21:44.574Z,6.25
2024-04-18T11:24:49.218Z,5.28
2024-04-18T11:27:51.870Z,5.68
2024-04-18T11:30:53.907Z,5.25
2024-04-18T11:33:57.119Z,5.97
2024-04-18T11:36:59.628Z,6.43
2024-04-18T11:40:06.145Z,5.75
2024-04-18T11:43:08.107Z,6.43
2024-04-18T11:46:10.142Z,6.10
2024-04-18T11:49:13.250Z,5.97
2024-04-18T11:52:15.424Z,5.55
2024-04-18T11:55:19.940Z,4.70
2024-04-18T11:58:21.836Z,4.82
2024-04-18T12:01:23.755Z,5.07
2024-04-18T12:04:25.862Z,4.78
2024-04-18T12:07:27.913Z,4.47
2024-04-18T12:10:32.790Z,4.93
2024-04-18T12:13:34.796Z,4.13
2024-04-18T12:16:36.881Z,4.93
2024-04-18T12:19:39.939Z,4.50
2024-04-18T12:25:47.121Z,4.40
2024-04-18T12:28:49.068Z,4.30
2024-04-18T12:31:50.966Z,4.68
2024-04-18T12:34:52.930Z,4.55
2024-04-18T12:37:55.595Z,4.60
2024-04-18T12:41:02.977Z,5.10
2024-04-18T12:44:07.346Z,4.50
2024-04-18T12:47:09.278Z,4.18
2024-04-18T12:50:11.878Z,4.72
2024-04-18T12:53:16.309Z,4.13
2024-04-18T12:56:20.942Z,4.32
2024-04-18T12:59:23.328Z,4.25
2024-04-18T13:02:25.355Z,3.90
2024-04-18T13:05:27.402Z,4.07
2024-04-18T13:08:29.427Z,4.20
2024-04-18T13:11:34.100Z,3.72
2024-04-18T13:14:35.989Z,3.50
2024-04-18T13:17:37.893Z,3.80
2024-04-18T13:20:42.392Z,3.90
2024-04-18T13:23:44.260Z,6.28
2024-04-18T13:26:48.925Z,3.80
2024-04-18T13:29:50.834Z,3.95
2024-04-18T13:32:53.318Z,3.63
2024-04-18T13:35:55.367Z,3.50
2024-04-18T13:38:58.928Z,3.50
2024-04-18T13:42:03.966Z,3.75
2024-04-18T13:45:06.240Z,3.30
2024-04-18T13:48:08.773Z,3.40
2024-04-18T13:51:10.791Z,3.60
2024-04-18T13:54:12.662Z,3.70
2024-04-18T13:57:18.487Z,3.25
2024-04-18T14:00:20.588Z,3.30
2024-04-18T14:03:22.761Z,3.55
2024-04-18T14:06:26.562Z,3.10
2024-04-18T14:09:38.043Z,3.17
2024-04-18T14:12:42.861Z,3.42
2024-04-18T14:16:04.881Z,3.53
2024-04-18T14:19:06.829Z,3.22
2024-04-18T14:22:08.824Z,3.50
2024-04-18T14:25:10.890Z,3.28
2024-04-18T14:28:23.715Z,3.55
2024-04-18T14:31:29.958Z,4.00
2024-04-18T14:34:32.158Z,3.58
2024-04-18T14:37:34.203Z,3.83
2024-04-18T14:40:36.285Z,3.50
2024-04-18T14:43:40.943Z,3.63
2024-04-18T14:46:42.973Z,3.25
2024-04-18T14:49:44.842Z,3.60
2024-04-18T14:52:46.714Z,4.28
2024-04-18T14:55:48.797Z,4.60
2024-04-18T14:58:53.391Z,4.43
2024-04-18T15:01:55.416Z,4.82
2024-04-18T15:04:57.446Z,4.82
2024-04-18T15:07:59.837Z,5.20
2024-04-18T15:11:02.337Z,5.22
2024-04-18T15:14:17.649Z,5.25
2024-04-18T15:17:21.834Z,4.70
2024-04-18T15:20:29.527Z,7.32
2024-04-18T15:23:37.476Z,6.00
2024-04-18T15:26:42.070Z,6.07
2024-04-18T15:29:48.926Z,5.90
2024-04-18T15:32:57.380Z,5.00
2024-04-18T15:36:02.554Z,5.97
2024-04-18T15:39:05.878Z,6.38
2024-04-18T16:10:18.149Z,5.18
2024-04-18T16:13:20.018Z,4.53
2024-04-18T16:16:21.955Z,5.70
2024-04-18T16:19:25.273Z,4.60
2024-04-18T16:22:29.481Z,4.95
2024-04-18T16:25:39.624Z,4.80
2024-04-18T16:28:42.650Z,5.03
2024-04-18T16:31:44.653Z,5.65
2024-04-18T16:34:46.528Z,4.80
2024-04-18T16:37:48.427Z,5.10
2024-04-18T16:40:53.431Z,4.82
2024-04-18T16:43:55.514Z,4.70
2024-04-18T16:46:57.389Z,5.30
2024-04-18T16:49:59.496Z,4.68
2024-04-18T16:53:01.404Z,4.75
2024-04-18T16:56:06.468Z,3.55
2024-04-18T16:59:11.134Z,3.40
2024-04-18T17:02:13.123Z,3.70
2024-04-18T17:05:15.151Z,3.67
2024-04-18T17:08:17.048Z,3.65
2024-04-18T17:11:23.850Z,3.85
2024-04-18T17:14:26.378Z,3.97
2024-04-18T17:17:28.348Z,4.20
2024-04-18T17:20:30.360Z,4.47
2024-04-18T17:23:32.337Z,4.22
2024-04-18T17:26:36.803Z,4.18
2024-04-18T17:29:39.027Z,4.00
2024-04-18T17:32:41.042Z,3.80
2024-04-18T17:35:43.640Z,4.38
2024-04-18T17:38:46.024Z,3.53
2024-04-18T17:41:50.609Z,5.00
2024-04-18T17:44:52.481Z,3.92
2024-04-18T17:47:54.617Z,4.47
2024-04-18T17:50:56.505Z,4.95
2024-04-18T17:53:58.512Z,4.85
2024-04-18T17:57:04.262Z,4.95
2024-04-18T18:00:08.519Z,4.80
2024-04-18T18:03:11.836Z,5.25
2024-04-18T18:06:13.771Z,5.25
2024-04-18T18:09:16.674Z,5.07
2024-04-18T18:12:21.669Z,5.38
2024-04-18T18:15:23.629Z,5.97
2024-04-18T18:18:25.659Z,5.50
2024-04-18T18:21:27.992Z,5.00
2024-04-18T18:24:30.113Z,5.25
2024-04-18T18:27:34.698Z,4.88
2024-04-18T18:30:39.127Z,5.38
2024-04-18T18:33:44.579Z,5.22
2024-04-18T18:36:48.342Z,5.28
2024-04-18T18:39:50.567Z,5.85
2024-04-18T18:42:55.140Z,5.22
2024-04-18T18:45:57.354Z,5.68
2024-04-18T18:48:59.372Z,5.10
2024-04-18T18:52:01.926Z,6.00
2024-04-18T18:55:04.300Z,5.13
2024-04-18T18:58:08.837Z,5.20
2024-04-18T19:01:10.905Z,5.95
2024-04-18T19:04:12.992Z,6.90
2024-04-18T19:07:14.904Z,7.13
2024-04-18T19:10:18.671Z,6.40
2024-04-18T19:13:23.511Z,5.82
2024-04-18T19:16:25.476Z,5.07
2024-04-18T19:19:27.393Z,4.70
2024-04-18T19:22:29.222Z,4.60
2024-04-18T19:25:31.128Z,4.22
2024-04-18T19:28:38.695Z,4.57
2024-04-18T19:31:40.594Z,3.55
2024-04-18T19:34:42.550Z,4.15
2024-04-18T19:37:44.466Z,4.45
2024-04-18T19:40:46.446Z,4.20
2024-04-18T19:43:53.466Z,4.30
2024-04-18T19:46:55.441Z,3.85
2024-04-18T19:49:57.324Z,4.00
2024-04-18T19:52:59.263Z,4.47
2024-04-18T19:56:01.209Z,4.07
2024-04-18T19:59:05.783Z,4.07
2024-04-18T20:02:07.761Z,4.10
2024-04-18T20:05:09.725Z,4.00
2024-04-18T20:08:11.794Z,4.00
2024-04-18T20:11:16.238Z,4.00
2024-04-18T20:14:20.812Z,4.07
2024-04-18T20:17:22.850Z,3.92
2024-04-18T20:20:24.957Z,4.20
2024-04-18T20:23:26.939Z,3.80
2024-04-18T20:26:29.133Z,3.83
2024-04-18T20:29:37.059Z,3.20
2024-04-18T20:32:39.107Z,3.65
2024-04-18T20:35:41.020Z,2.83
2024-04-18T20:38:47.647Z,3.28
2024-04-18T20:41:49.648Z,3.25
2024-04-18T20:44:54.249Z,2.80
2024-04-18T20:47:56.250Z,3.20
2024-04-18T20:50:58.251Z,3.40
2024-04-18T20:54:00.613Z,3.15
2024-04-18T20:57:02.599Z,2.75
2024-04-18T21:00:09.303Z,3.10
2024-04-18T21:03:11.428Z,3.20
2024-04-18T21:06:13.461Z,3.28
2024-04-18T21:09:15.541Z,2.75
2024-04-18T21:12:17.683Z,3.50
2024-04-18T21:15:22.904Z,3.50
2024-04-18T21:18:24.963Z,3.33
2024-04-18T21:21:27.084Z,3.17
2024-04-18T21:24:29.029Z,3.13
2024-04-18T21:27:31.227Z,2.92
2024-04-18T21:30:35.876Z,3.33
2024-04-18T21:33:37.971Z,3.63
2024-04-18T21:36:40.083Z,2.85
2024-04-18T21:39:42.221Z,3.60
2024-04-18T21:42:44.273Z,3.35
2024-04-18T21:45:48.928Z,2.70
2024-04-18T21:48:50.963Z,2.85
2024-04-18T21:51:52.941Z,2.63
2024-04-18T21:54:54.846Z,3.60
2024-04-18T21:57:56.831Z,3.55
2024-04-18T22:01:01.498Z,3.00
2024-04-18T22:04:03.824Z,3.33
2024-04-18T22:07:05.877Z,3.25
2024-04-18T22:10:08.508Z,3.72
2024-04-18T22:13:10.469Z,3.65
2024-04-18T22:16:15.255Z,3.47
2024-04-18T22:19:17.280Z,3.25
2024-04-18T22:22:19.308Z,3.15
2024-04-18T22:25:21.293Z,3.63
2024-04-18T22:28:46.021Z,3.42
2024-04-18T22:32:09.506Z,3.72
2024-04-18T22:35:11.449Z,3.10
2024-04-18T22:38:13.575Z,3.92
2024-04-18T22:41:15.507Z,3.72
2024-04-18T22:44:17.621Z,4.05
2024-04-18T22:47:22.239Z,3.60
2024-04-18T22:50:24.655Z,3.35
2024-04-18T22:53:26.594Z,3.33
2024-04-18T22:56:28.516Z,3.35
2024-04-18T22:59:30.463Z,3.58
2024-04-18T23:02:34.968Z,3.75
2024-04-18T23:05:37.067Z,4.00
2024-04-18T23:08:39.033Z,3.53
2024-04-18T23:11:40.947Z,3.47
2024-04-18T23:14:43.043Z,3.55
2024-04-18T23:17:47.767Z,3.65
2024-04-18T23:20:49.697Z,3.65
2024-04-18T23:23:51.663Z,3.47
2024-04-18T23:26:53.536Z,3.35
2024-04-18T23:29:55.497Z,3.20
2024-04-18T23:33:00.039Z,3.45
2024-04-18T23:36:02.517Z,3.45
2024-04-18T23:39:04.764Z,3.53
2024-04-18T23:42:06.703Z,3.50
2024-04-18T23:45:08.736Z,3.45
2024-04-18T23:48:13.846Z,3.65
2024-04-18T23:51:15.903Z,4.05
2024-04-18T23:54:17.885Z,3.50
2024-04-18T23:57:20.857Z,3.15
